Time;durP1;ratioP1;P1;durP2;ratioP2;P2;SDS_P1;SDS_P2;PMS_P1;PMS_P2;Temp;Humidity;BMP_temperature;BMP_pressure;BME280_temperature;BME280_humidity;BME280_pressure;Samples;Min_cycle;Max_cycle;Signal;HPM_P1;HPM_P2
2022/03/05 00:02:06;;;;;;;20.88;9.60;;;3.00;99.90;;;3.20;nan;101025.84;4993728;28;20237;-68
2022/03/05 00:04:33;;;;;;;22.58;8.95;;;2.90;99.90;;;3.18;nan;101035.38;4990477;28;20698;-69
2022/03/05 00:07:00;;;;;;;19.33;8.77;;;2.90;99.90;;;3.12;nan;101020.13;4978671;28;20262;-67
2022/03/05 00:09:28;;;;;;;20.65;9.23;;;2.90;99.90;;;3.14;nan;101024.34;5005323;28;20226;-68
2022/03/05 00:11:55;;;;;;;21.27;9.70;;;2.90;99.90;;;3.10;nan;101019.34;4975365;28;20627;-69
2022/03/05 00:14:22;;;;;;;23.17;11.27;;;2.90;99.90;;;3.10;nan;101024.50;4971483;28;20206;-68
2022/03/05 00:16:49;;;;;;;20.13;8.45;;;2.90;99.90;;;3.00;nan;101029.13;4955942;28;20211;-69
2022/03/05 00:19:16;;;;;;;18.38;7.97;;;2.90;99.90;;;3.02;nan;101019.59;4971839;28;20235;-69
2022/03/05 00:21:43;;;;;;;22.20;9.20;;;2.80;99.90;;;2.96;nan;101027.53;4991661;28;20573;-69
2022/03/05 00:24:10;;;;;;;23.88;10.00;;;2.80;99.90;;;2.94;nan;101026.75;4992538;28;20203;-69
2022/03/05 00:26:37;;;;;;;18.30;8.75;;;2.80;99.90;;;2.86;nan;101033.06;4959818;28;20212;-69
2022/03/05 00:29:04;;;;;;;24.45;10.10;;;2.70;99.90;;;2.74;nan;101024.03;4972180;28;20254;-68
2022/03/05 00:31:31;;;;;;;27.05;11.43;;;2.60;99.90;;;2.65;nan;101021.75;4978447;28;20687;-68
2022/03/05 00:33:58;;;;;;;21.30;8.75;;;2.50;99.90;;;2.59;nan;101024.53;5011244;28;20238;-68
2022/03/05 00:36:25;;;;;;;24.48;9.80;;;2.40;99.90;;;2.50;nan;101019.69;4994804;28;20207;-69
2022/03/05 00:38:52;;;;;;;23.17;9.80;;;2.40;99.90;;;2.46;nan;101025.81;4999419;28;20271;-68
2022/03/05 00:41:19;;;;;;;29.25;10.70;;;2.30;99.90;;;2.55;nan;101028.09;4974907;28;20211;-71
2022/03/05 00:43:46;;;;;;;26.30;11.07;;;2.30;99.90;;;2.44;nan;101025.03;4991308;28;20208;-68
2022/03/05 00:46:13;;;;;;;23.52;9.95;;;2.30;99.90;;;2.47;nan;101024.09;4975664;28;20242;-69
2022/03/05 00:48:40;;;;;;;22.83;10.57;;;2.30;99.90;;;2.47;nan;101029.25;4970569;28;20235;-68
2022/03/05 00:51:07;;;;;;;22.02;8.32;;;2.30;99.90;;;2.47;nan;101027.50;4970282;28;20200;-71
2022/03/05 00:53:34;;;;;;;25.40;9.85;;;2.30;99.90;;;2.44;nan;101030.19;4972170;28;20227;-68
2022/03/05 00:56:02;;;;;;;16.77;6.40;;;2.30;99.90;;;2.38;nan;101032.13;4971637;28;20200;-69
2022/03/05 00:58:29;;;;;;;22.25;8.80;;;2.20;99.90;;;2.27;nan;101022.16;4960660;28;20645;-68
2022/03/05 01:00:56;;;;;;;20.00;8.75;;;2.10;99.90;;;2.25;nan;101026.50;4990961;28;20706;-69
2022/03/05 01:03:24;;;;;;;23.80;9.07;;;2.10;99.90;;;2.24;nan;101032.53;4990594;28;20977;-68
2022/03/05 01:05:51;;;;;;;21.70;8.52;;;2.10;99.90;;;2.25;nan;101029.94;4974781;28;20270;-68
2022/03/05 01:08:18;;;;;;;26.17;9.85;;;2.00;99.90;;;2.18;nan;101028.44;4974149;28;20214;-68
2022/03/05 01:10:45;;;;;;;20.92;8.85;;;2.00;99.90;;;2.24;nan;101035.97;4971155;28;20200;-68
2022/03/05 01:13:12;;;;;;;22.23;9.57;;;2.10;99.90;;;2.16;nan;101031.94;4954971;28;20711;-68
2022/03/05 01:15:40;;;;;;;13.63;6.45;;;2.10;99.90;;;2.07;nan;101039.94;4971829;28;20230;-68
2022/03/05 01:18:07;;;;;;;17.02;8.20;;;1.90;99.90;;;2.02;nan;101028.97;4958822;28;20203;-68
2022/03/05 01:20:34;;;;;;;19.83;7.45;;;1.90;99.90;;;1.99;nan;101029.91;4954619;28;20592;-69
2022/03/05 01:23:01;;;;;;;22.48;9.23;;;1.80;99.90;;;2.00;nan;101030.75;4954664;28;20208;-68
2022/03/05 01:25:28;;;;;;;19.40;9.27;;;1.80;99.90;;;1.98;nan;101024.81;4956136;28;20208;-70
2022/03/05 01:27:55;;;;;;;22.52;10.05;;;1.80;99.90;;;2.02;nan;101024.63;4954869;28;20200;-69
2022/03/05 01:30:22;;;;;;;19.83;8.80;;;1.80;99.90;;;2.03;nan;101028.91;5009020;23;20236;-72
2022/03/05 01:32:51;;;;;;;14.15;6.28;;;1.90;99.90;;;1.98;nan;101023.03;5047119;28;20222;-69
2022/03/05 01:35:18;;;;;;;19.88;7.88;;;1.80;99.90;;;1.91;nan;101031.00;5042179;28;20205;-69
2022/03/05 01:37:45;;;;;;;20.50;8.60;;;1.80;99.90;;;1.94;nan;101023.22;5046219;28;20197;-69
2022/03/05 01:40:12;;;;;;;19.98;7.65;;;1.80;99.90;;;1.98;nan;101030.78;5040706;28;20240;-69
2022/03/05 01:42:39;;;;;;;13.57;6.03;;;1.80;99.90;;;1.95;nan;101033.47;5028569;28;20276;-69
2022/03/05 01:45:10;;;;;;;19.85;9.40;;;1.80;99.90;;;1.93;nan;101027.50;5028501;28;20209;-69
2022/03/05 01:47:38;;;;;;;16.35;8.20;;;1.80;99.90;;;1.88;nan;101031.09;5029714;28;20673;-70
2022/03/05 01:50:07;;;;;;;21.30;8.30;;;1.70;99.90;;;1.93;nan;101021.53;5025244;28;20226;-69
2022/03/05 01:52:34;;;;;;;22.52;9.20;;;1.80;99.90;;;1.87;nan;101022.56;5031334;28;20202;-69
2022/03/05 01:55:02;;;;;;;21.30;9.60;;;1.70;99.90;;;1.82;nan;101029.56;5016428;28;20252;-69
2022/03/05 01:57:29;;;;;;;21.00;8.50;;;1.70;99.90;;;1.85;nan;101031.22;5019851;28;20572;-70
2022/03/05 01:59:56;;;;;;;19.15;7.53;;;1.70;99.90;;;1.78;nan;101027.97;5025613;28;20217;-70
2022/03/05 02:02:23;;;;;;;21.52;10.73;;;1.70;99.90;;;1.77;nan;101025.44;5038376;28;20206;-70
2022/03/05 02:04:50;;;;;;;22.88;9.00;;;1.60;99.90;;;1.75;nan;101024.63;5031200;28;20571;-68
2022/03/05 02:07:17;;;;;;;17.20;7.20;;;1.60;99.90;;;1.79;nan;101031.38;5022874;28;20206;-70
2022/03/05 02:09:44;;;;;;;16.48;8.45;;;1.60;99.90;;;1.77;nan;101021.13;5018001;28;20215;-70
2022/03/05 02:12:11;;;;;;;11.88;6.18;;;1.60;99.90;;;1.63;nan;101023.28;5018784;28;20195;-70
2022/03/05 02:14:38;;;;;;;21.88;8.73;;;1.50;99.90;;;1.54;nan;101028.69;5019484;28;20234;-70
2022/03/05 02:17:06;;;;;;;17.95;8.13;;;1.40;99.90;;;1.59;nan;101021.69;5024669;28;20280;-72
2022/03/05 02:19:33;;;;;;;19.60;9.80;;;1.40;99.90;;;1.63;nan;101025.00;5025111;28;20340;-67
2022/03/05 02:22:00;;;;;;;19.10;9.40;;;1.50;99.90;;;1.65;nan;101029.22;5018312;28;20199;-71
2022/03/05 02:24:32;;;;;;;20.95;9.52;;;1.50;99.90;;;1.64;nan;101031.84;5017611;28;20667;-70
2022/03/05 02:27:02;;;;;;;20.83;9.13;;;1.50;99.90;;;1.53;nan;101032.97;5023206;28;20206;-72
2022/03/05 02:29:32;;;;;;;17.23;8.90;;;1.50;99.90;;;1.48;nan;101034.00;5041466;28;20210;-70
2022/03/05 02:32:00;;;;;;;20.42;9.65;;;1.40;99.90;;;1.59;nan;101029.41;5040455;28;20205;-70
2022/03/05 02:34:28;;;;;;;16.45;7.85;;;1.50;99.90;;;1.60;nan;101030.25;5019910;28;20297;-70
2022/03/05 02:36:55;;;;;;;18.52;9.40;;;1.50;99.90;;;1.56;nan;101027.75;5021720;28;20230;-70
2022/03/05 02:39:26;;;;;;;17.85;8.63;;;1.50;99.90;;;1.63;nan;101030.13;5021058;28;20640;-70
2022/03/05 02:41:54;;;;;;;20.67;9.38;;;1.50;99.90;;;1.62;nan;101023.31;5023828;28;20214;-70
2022/03/05 02:44:23;;;;;;;17.65;8.57;;;1.50;99.90;;;1.64;nan;101021.56;5030115;28;20575;-70
2022/03/05 02:46:51;;;;;;;17.70;9.45;;;1.60;99.90;;;1.54;nan;101029.53;5012618;28;20214;-70
2022/03/05 02:49:18;;;;;;;16.52;7.80;;;1.50;99.90;;;1.53;nan;101034.72;5012847;28;20260;-69
2022/03/05 02:51:46;;;;;;;14.05;6.25;;;1.40;99.90;;;1.40;nan;101036.78;5020184;28;20221;-70
2022/03/05 02:54:13;;;;;;;18.48;6.53;;;1.30;99.90;;;1.42;nan;101034.19;5033082;28;20266;-70
2022/03/05 02:56:40;;;;;;;17.17;6.50;;;1.30;99.90;;;1.36;nan;101035.16;5032132;28;20236;-69
2022/03/05 02:59:07;;;;;;;16.60;6.90;;;1.30;99.90;;;1.40;nan;101035.94;5031905;28;20202;-70
2022/03/05 03:01:34;;;;;;;14.65;6.45;;;1.20;99.90;;;1.41;nan;101038.47;5032647;28;20254;-69
2022/03/05 03:04:02;;;;;;;19.75;7.32;;;1.30;99.90;;;1.49;nan;101031.38;5019214;28;20211;-70
2022/03/05 03:06:29;;;;;;;15.43;5.50;;;1.40;99.90;;;1.44;nan;101035.81;5012617;28;20203;-69
2022/03/05 03:08:56;;;;;;;18.33;7.30;;;1.30;99.90;;;1.43;nan;101036.69;5028606;28;20198;-69
2022/03/05 03:11:24;;;;;;;17.90;8.65;;;1.30;99.90;;;1.37;nan;101031.72;5032477;28;20226;-70
2022/03/05 03:13:51;;;;;;;13.68;7.25;;;1.20;99.90;;;1.42;nan;101035.03;5032895;28;20229;-69
2022/03/05 03:16:18;;;;;;;13.75;6.55;;;1.30;99.90;;;1.36;nan;101035.16;5033080;28;20209;-70
2022/03/05 03:18:45;;;;;;;18.13;7.75;;;1.30;99.90;;;1.38;nan;101032.59;5032532;28;20244;-70
2022/03/05 03:21:12;;;;;;;19.48;7.47;;;1.20;99.90;;;1.36;nan;101026.63;5024359;28;20280;-69
2022/03/05 03:23:39;;;;;;;16.42;7.88;;;1.20;99.90;;;1.35;nan;101035.22;5032655;28;20209;-70
2022/03/05 03:26:06;;;;;;;21.73;7.25;;;1.20;99.90;;;1.27;nan;101032.88;5033855;28;20206;-70
2022/03/05 03:28:33;;;;;;;14.07;6.60;;;1.20;99.90;;;1.27;nan;101030.31;5033189;28;20202;-70
2022/03/05 03:31:00;;;;;;;18.90;7.30;;;1.20;99.90;;;1.35;nan;101033.50;5032283;28;20229;-69
2022/03/05 03:33:27;;;;;;;17.77;7.38;;;1.20;99.90;;;1.30;nan;101035.34;5022920;28;20229;-70
2022/03/05 03:35:54;;;;;;;15.85;7.97;;;1.20;99.90;;;1.28;nan;101031.97;5024557;28;20194;-70
2022/03/05 03:38:21;;;;;;;15.63;7.50;;;1.20;99.90;;;1.25;nan;101037.22;5031841;28;20231;-69
2022/03/05 03:40:48;;;;;;;14.88;6.85;;;1.10;99.90;;;1.25;nan;101037.22;5029883;28;20230;-69
2022/03/05 03:43:15;;;;;;;15.38;7.18;;;1.10;99.90;;;1.32;nan;101037.91;5016723;28;20211;-69
2022/03/05 03:45:42;;;;;;;12.77;6.57;;;1.20;99.90;;;1.30;nan;101043.06;5011780;28;20206;-70
2022/03/05 03:48:09;;;;;;;14.02;6.55;;;1.20;99.90;;;1.24;nan;101040.66;5012922;28;20588;-69
2022/03/05 03:50:36;;;;;;;14.38;7.10;;;1.10;99.90;;;1.21;nan;101051.03;5012404;28;20230;-69
2022/03/05 03:53:03;;;;;;;11.88;6.70;;;1.10;99.90;;;1.22;nan;101052.72;5029437;28;20206;-70
2022/03/05 03:55:30;;;;;;;11.85;5.90;;;1.10;99.90;;;1.25;nan;101052.66;5023172;28;20207;-71
2022/03/05 03:57:57;;;;;;;14.15;7.45;;;1.10;99.90;;;1.19;nan;101057.91;5011920;28;20203;-69
2022/03/05 04:00:24;;;;;;;23.55;9.05;;;1.10;99.90;;;1.17;nan;101069.16;5019149;28;20233;-70
2022/03/05 04:02:52;;;;;;;14.82;6.38;;;1.10;99.90;;;1.07;nan;101063.41;5032730;28;20206;-69
2022/03/05 04:05:19;;;;;;;16.75;7.90;;;1.00;99.90;;;0.88;nan;101063.91;5031078;28;20206;-70
2022/03/05 04:10:31;;;;;;;17.52;7.82;;;0.70;99.90;;;0.89;nan;101063.88;5029966;28;20592;-68
2022/03/05 04:12:58;;;;;;;17.10;8.32;;;0.80;99.90;;;0.84;nan;101063.16;5017647;28;20206;-70
2022/03/05 04:15:25;;;;;;;18.52;7.68;;;0.80;99.90;;;0.87;nan;101059.66;5027268;28;20555;-70
2022/03/05 04:17:52;;;;;;;21.02;8.18;;;0.80;99.90;;;0.90;nan;101067.28;5026209;28;20199;-70
2022/03/05 04:20:19;;;;;;;17.80;7.22;;;0.80;99.90;;;0.97;nan;101063.69;5027556;28;20221;-70
2022/03/05 04:22:46;;;;;;;17.50;8.60;;;0.90;99.90;;;0.95;nan;101060.31;5030288;28;20584;-71
2022/03/05 04:25:14;;;;;;;15.25;8.10;;;0.90;99.90;;;0.97;nan;101061.09;5030865;28;20218;-70
2022/03/05 04:27:41;;;;;;;17.38;7.93;;;0.80;99.90;;;0.90;nan;101057.84;5029692;28;20205;-72
2022/03/05 04:30:09;;;;;;;16.15;7.20;;;0.80;99.90;;;0.79;nan;101053.00;5012042;28;20226;-70
2022/03/05 04:32:36;;;;;;;17.42;7.20;;;0.70;99.90;;;0.91;nan;101058.69;4994435;28;20202;-70
2022/03/05 04:35:03;;;;;;;12.98;6.38;;;0.80;99.90;;;0.87;nan;101060.53;5012434;28;20246;-71
2022/03/05 04:37:30;;;;;;;15.15;6.47;;;0.80;99.90;;;0.91;nan;101062.13;5018786;28;20206;-70
2022/03/05 04:39:59;;;;;;;19.77;7.80;;;0.80;99.90;;;0.90;nan;101063.00;5026060;28;20713;-70
2022/03/05 04:42:26;;;;;;;14.40;6.95;;;0.80;99.90;;;0.83;nan;101069.19;5024597;28;20206;-70
2022/03/05 04:44:53;;;;;;;14.57;7.03;;;0.70;99.90;;;0.84;nan;101063.16;5029973;28;20210;-71
2022/03/05 04:47:20;;;;;;;17.63;7.90;;;0.70;99.90;;;0.92;nan;101068.94;5030851;28;20695;-70
2022/03/05 04:49:48;;;;;;;16.15;7.70;;;0.80;99.90;;;0.92;nan;101070.66;5030635;28;20233;-70
2022/03/05 04:52:15;;;;;;;18.90;8.05;;;0.80;99.90;;;0.92;nan;101068.09;5019945;28;20210;-70
2022/03/05 04:54:42;;;;;;;18.65;8.13;;;0.80;99.90;;;0.90;nan;101067.28;5010806;28;20277;-70
2022/03/05 04:57:11;;;;;;;13.88;6.65;;;0.80;99.90;;;0.86;nan;101073.38;5012140;28;20202;-70
2022/03/05 04:59:38;;;;;;;14.35;5.97;;;0.80;99.90;;;0.81;nan;101076.06;5010144;28;20211;-70
2022/03/05 05:02:05;;;;;;;18.98;7.40;;;0.70;99.90;;;0.83;nan;101081.19;5024878;28;20198;-70
2022/03/05 05:04:32;;;;;;;17.80;7.93;;;0.70;99.90;;;0.72;nan;101079.69;5013718;28;20207;-70
2022/03/05 05:06:59;;;;;;;14.32;6.63;;;0.60;99.90;;;0.78;nan;101078.72;5029513;28;20202;-70
2022/03/05 05:09:26;;;;;;;14.32;6.47;;;0.70;99.90;;;0.76;nan;101083.91;5031093;28;20586;-70
2022/03/05 05:11:53;;;;;;;18.00;6.93;;;0.60;99.90;;;0.79;nan;101080.41;5029225;28;20206;-70
2022/03/05 05:14:20;;;;;;;10.27;5.32;;;0.60;99.90;;;0.73;nan;101085.69;5030630;28;20226;-70
2022/03/05 05:16:47;;;;;;;18.17;4.95;;;0.60;99.90;;;0.68;nan;101087.53;5019317;28;20201;-70
2022/03/05 05:19:29;;;;;;;10.10;4.53;;;0.60;99.90;;;0.73;nan;101085.69;5021102;28;20214;-70
2022/03/05 05:22:00;;;;;;;9.48;4.93;;;0.50;99.90;;;0.62;nan;101096.22;5022301;28;20297;-70
2022/03/05 05:24:30;;;;;;;12.30;5.38;;;0.60;99.90;;;0.64;nan;101094.47;5028524;28;20578;-70
2022/03/05 05:26:58;;;;;;;13.45;5.82;;;0.50;99.90;;;0.57;nan;101092.09;5029623;28;20202;-70
2022/03/05 05:29:26;;;;;;;12.00;6.10;;;0.50;99.90;;;0.55;nan;101099.84;5031000;28;20190;-69
2022/03/05 05:32:11;;;;;;;11.85;5.57;;;0.50;99.90;;;0.55;nan;101102.41;5028322;28;20240;-71
2022/03/05 05:34:43;;;;;;;13.02;6.05;;;0.50;99.90;;;0.56;nan;101095.53;5027461;28;20809;-70
2022/03/05 05:37:14;;;;;;;19.75;6.93;;;0.50;99.90;;;0.55;nan;101093.84;5030287;28;20205;-68
2022/03/05 05:39:42;;;;;;;17.58;7.18;;;0.50;99.90;;;0.58;nan;101096.31;5028691;28;20206;-71
2022/03/05 05:42:10;;;;;;;14.15;6.40;;;0.50;99.90;;;0.49;nan;101096.56;5030088;28;20213;-71
2022/03/05 05:44:37;;;;;;;13.32;5.63;;;0.40;99.90;;;0.51;nan;101100.75;5031347;28;20206;-71
2022/03/05 05:47:05;;;;;;;12.05;6.13;;;0.40;99.90;;;0.49;nan;101105.09;5028272;28;20244;-71
2022/03/05 05:49:32;;;;;;;15.02;7.15;;;0.40;99.90;;;0.48;nan;101105.13;5021516;28;20209;-68
2022/03/05 05:52:00;;;;;;;16.58;7.30;;;0.40;99.90;;;0.49;nan;101099.94;5021504;28;20209;-71
2022/03/05 05:54:28;;;;;;;13.13;6.10;;;0.40;99.90;;;0.48;nan;101105.97;5014021;28;20234;-70
2022/03/05 05:56:55;;;;;;;16.85;6.18;;;0.40;99.90;;;0.42;nan;101106.13;5011467;28;20574;-70
2022/03/05 05:59:22;;;;;;;12.07;5.35;;;0.30;99.90;;;0.43;nan;101110.38;5023388;28;20242;-70
2022/03/05 06:01:51;;;;;;;14.38;5.65;;;0.30;99.90;;;0.41;nan;101107.00;5020310;28;20667;-70
2022/03/05 06:04:19;;;;;;;20.48;6.10;;;0.30;99.90;;;0.33;nan;101102.91;5022001;28;20198;-68
2022/03/05 06:06:46;;;;;;;10.88;4.57;;;0.30;99.90;;;0.36;nan;101108.00;5029604;28;20217;-68
2022/03/05 06:09:14;;;;;;;10.77;5.07;;;0.30;99.90;;;0.37;nan;101114.78;5029297;28;20232;-69
2022/03/05 06:11:41;;;;;;;13.30;5.45;;;0.30;99.90;;;0.35;nan;101111.41;5028550;28;20226;-69
2022/03/05 06:14:10;;;;;;;17.15;6.60;;;0.30;99.90;;;0.39;nan;101115.59;5029636;28;20229;-68
2022/03/05 06:16:38;;;;;;;12.63;5.60;;;0.30;99.90;;;0.33;nan;101118.31;5029147;28;20205;-68
2022/03/05 06:19:05;;;;;;;11.75;3.95;;;0.30;99.90;;;0.40;nan;101112.16;5014393;28;20624;-69
2022/03/05 06:21:32;;;;;;;7.60;4.25;;;0.40;99.90;;;0.57;nan;101115.19;5009266;28;20222;-68
2022/03/05 06:23:59;;;;;;;14.10;6.80;;;0.50;99.90;;;0.79;nan;101119.78;5019340;28;20813;-68
2022/03/05 06:26:30;;;;;;;14.63;5.88;;;0.90;99.90;;;1.17;nan;101126.50;5029048;28;20271;-68
2022/03/05 06:28:58;;;;;;;17.08;6.50;;;1.30;99.90;;;1.48;nan;101135.13;5030017;28;20264;-70
2022/03/05 06:31:25;;;;;;;19.75;8.85;;;1.70;99.90;;;1.75;nan;101135.25;5028954;28;20244;-69
2022/03/05 06:33:52;;;;;;;11.65;5.43;;;2.00;99.90;;;2.14;nan;101134.13;5030200;28;20199;-68
2022/03/05 06:36:19;;;;;;;18.02;9.00;;;2.40;99.90;;;2.46;nan;101134.00;5027989;28;20210;-68
2022/03/05 06:38:46;;;;;;;19.10;9.15;;;2.70;99.90;;;2.75;nan;101138.22;5020550;28;20203;-69
2022/03/05 06:41:13;;;;;;;12.25;5.72;;;3.00;99.90;;;3.35;nan;101140.53;5014254;28;20734;-69
2022/03/05 06:43:40;;;;;;;19.05;9.75;;;3.60;99.90;;;4.00;nan;101146.78;5030242;28;20210;-69
2022/03/05 06:46:07;;;;;;;16.83;8.70;;;4.40;99.90;;;4.44;nan;101145.09;5034203;28;20228;-68
2022/03/05 06:48:35;;;;;;;22.05;9.52;;;5.10;99.90;;;4.94;nan;101140.53;5033485;28;20206;-68
2022/03/05 06:51:02;;;;;;;19.08;8.63;;;5.50;99.90;;;5.71;nan;101153.56;5032329;28;20226;-70
2022/03/05 06:53:29;;;;;;;20.33;9.25;;;6.30;99.90;;;6.17;nan;101152.41;5017823;28;20209;-69
2022/03/05 06:55:56;;;;;;;21.50;10.00;;;6.80;99.50;;;6.54;nan;101151.56;5013151;28;20235;-69
2022/03/05 06:58:23;;;;;;;20.05;9.20;;;7.40;96.80;;;7.14;nan;101151.19;5013479;28;20214;-69
2022/03/05 07:00:50;;;;;;;19.30;9.75;;;7.80;95.20;;;7.88;nan;101152.53;5013811;28;20227;-69
2022/03/05 07:03:17;;;;;;;15.65;7.40;;;8.60;93.50;;;8.36;nan;101157.78;5027660;28;20209;-69
2022/03/05 07:05:44;;;;;;;19.90;9.40;;;9.00;91.50;;;8.84;nan;101162.00;5032471;28;20806;-69
2022/03/05 07:08:11;;;;;;;21.58;8.75;;;9.60;88.70;;;9.06;nan;101162.47;5031977;28;20642;-69
2022/03/05 07:10:38;;;;;;;24.27;9.90;;;9.70;85.20;;;9.21;nan;101166.81;5026339;28;20238;-69
2022/03/05 07:13:05;;;;;;;14.50;8.90;;;10.00;82.50;;;9.26;nan;101171.75;5018348;28;21185;-69
2022/03/05 07:15:32;;;;;;;16.73;8.73;;;10.10;80.10;;;9.94;nan;101171.13;5012239;28;20676;-69
2022/03/05 07:17:59;;;;;;;17.20;9.50;;;10.40;78.60;;;10.09;nan;101164.13;5012611;28;20995;-69
2022/03/05 07:20:26;;;;;;;17.03;9.17;;;10.80;75.90;;;10.65;nan;101178.84;5023642;28;20665;-69
2022/03/05 07:22:53;;;;;;;19.87;10.07;;;11.10;73.40;;;10.72;nan;101180.97;5033716;28;20620;-69
2022/03/05 07:25:20;;;;;;;16.10;9.07;;;11.20;72.10;;;11.01;nan;101179.09;5032410;28;20636;-69
2022/03/05 07:27:47;;;;;;;21.47;9.90;;;11.40;70.30;;;10.46;nan;101178.31;5032074;28;21058;-70
2022/03/05 07:30:14;;;;;;;19.00;10.45;;;11.10;70.20;;;10.84;nan;101180.19;5041480;22;20667;-69
2022/03/05 07:32:41;;;;;;;21.37;10.00;;;11.40;69.30;;;11.22;nan;101182.91;5012698;28;20641;-70
2022/03/05 07:35:08;;;;;;;33.07;11.77;;;11.90;67.60;;;12.08;nan;101184.88;5033471;28;20659;-69
2022/03/05 07:37:35;;;;;;;19.00;10.23;;;12.50;65.40;;;12.56;nan;101182.38;5032019;28;20702;-69
2022/03/05 07:40:05;;;;;;;19.83;10.37;;;13.10;63.00;;;13.35;nan;101191.38;5023142;28;20632;-66
2022/03/05 07:42:32;;;;;;;26.17;13.27;;;13.70;61.10;;;13.16;nan;101191.91;5017948;28;20645;-66
2022/03/05 07:44:59;;;;;;;20.63;11.63;;;14.00;59.40;;;13.96;nan;101183.16;4992772;28;20664;-69
2022/03/05 07:47:26;;;;;;;23.40;11.90;;;14.50;58.10;;;14.53;nan;101183.03;4979173;28;20652;-67
2022/03/05 07:49:53;;;;;;;23.40;11.97;;;15.10;56.30;;;14.70;nan;101192.19;5023022;28;20625;-66
2022/03/05 07:52:20;;;;;;;22.67;12.37;;;15.80;54.20;;;14.92;nan;101194.75;4995631;28;20673;-66
2022/03/05 07:54:47;;;;;;;23.30;12.50;;;15.90;53.40;;;15.43;nan;101195.78;5002810;28;20673;-66
2022/03/05 07:57:14;;;;;;;20.43;11.43;;;16.30;52.60;;;16.56;nan;101193.03;5002782;28;21216;-67
2022/03/05 07:59:41;;;;;;;22.77;12.20;;;17.30;50.80;;;17.01;nan;101203.91;5013047;28;21022;-69
2022/03/05 08:02:08;;;;;;;24.90;12.77;;;18.20;48.20;;;18.25;nan;101200.25;5011014;28;20663;-66
2022/03/05 08:04:36;;;;;;;22.90;12.63;;;19.10;46.90;;;19.10;nan;101192.81;5028647;28;20623;-69
2022/03/05 08:07:24;;;;;;;24.93;13.83;;;19.90;45.30;;;20.41;nan;101195.19;5029718;28;20613;-66
2022/03/05 08:09:51;;;;;;;24.23;14.50;;;21.30;43.10;;;20.38;nan;101192.06;5012929;28;20617;-67
2022/03/05 08:12:18;;;;;;;28.17;16.70;;;21.90;41.30;;;21.04;nan;101197.41;4992158;28;20704;-68
2022/03/05 08:14:45;;;;;;;27.43;15.10;;;22.10;40.90;;;21.21;nan;101196.41;4992724;28;20672;-67
2022/03/05 08:17:12;;;;;;;20.00;13.30;;;22.40;40.10;;;21.00;nan;101196.84;5003200;28;21221;-68
2022/03/05 08:19:40;;;;;;;18.80;12.03;;;22.60;39.20;;;21.14;nan;101204.19;5008142;28;20630;-68
2022/03/05 08:22:19;;;;;;;20.30;13.00;;;22.60;39.20;;;22.17;nan;101201.59;5006849;28;21225;-68
2022/03/05 08:24:46;;;;;;;18.63;11.97;;;23.40;38.40;;;23.31;nan;101205.31;5012541;28;21195;-68
2022/03/05 08:27:14;;;;;;;20.90;13.67;;;24.60;37.00;;;24.07;nan;101202.47;5009149;28;20641;-67
2022/03/05 08:29:41;;;;;;;15.87;10.80;;;25.40;36.20;;;24.54;nan;101197.53;5011348;28;21129;-67
2022/03/05 08:32:09;;;;;;;20.10;12.53;;;26.00;35.20;;;24.85;nan;101196.47;5000486;28;20686;-71
2022/03/05 08:34:36;;;;;;;16.60;11.63;;;26.80;34.30;;;23.04;nan;101197.88;5011991;28;20676;-67
2022/03/05 08:37:03;;;;;;;20.70;13.30;;;25.40;34.20;;;24.42;nan;101199.03;5010008;28;20632;-67
2022/03/05 08:39:30;;;;;;;18.70;11.73;;;26.00;34.10;;;25.37;nan;101205.81;5001860;28;21224;-68
2022/03/05 08:41:57;;;;;;;17.60;11.20;;;27.10;33.70;;;26.02;nan;101210.03;4990964;28;20685;-67
2022/03/05 08:44:24;;;;;;;17.63;11.70;;;28.00;32.90;;;26.60;nan;101200.69;5004539;28;20638;-66
2022/03/05 08:46:51;;;;;;;17.70;12.07;;;28.80;31.90;;;26.90;nan;101207.38;5012126;28;20678;-69
2022/03/05 08:49:18;;;;;;;19.50;10.90;;;29.30;31.60;;;26.93;nan;101204.28;5009310;28;20633;-67
2022/03/05 08:51:45;;;;;;;15.27;10.77;;;29.40;31.30;;;27.58;nan;101200.84;5002661;28;21028;-67
2022/03/05 08:54:12;;;;;;;15.70;10.83;;;30.00;30.90;;;28.27;nan;101207.38;5010345;28;20984;-67
2022/03/05 08:56:39;;;;;;;16.50;12.73;;;30.80;30.30;;;27.20;nan;101207.81;5010754;28;21228;-66
2022/03/05 08:59:06;;;;;;;16.50;11.13;;;30.40;30.00;;;28.02;nan;101214.47;5006153;28;20975;-69
2022/03/05 09:01:33;;;;;;;14.87;10.67;;;30.80;30.00;;;28.55;nan;101215.09;5011080;28;20654;-68
2022/03/05 09:04:01;;;;;;;15.07;10.50;;;31.40;29.80;;;28.31;nan;101211.25;4993021;28;20637;-67
2022/03/05 09:06:27;;;;;;;15.50;11.80;;;31.70;29.60;;;28.90;nan;101211.00;5011196;28;20617;-68
2022/03/05 09:08:57;;;;;;;14.73;11.60;;;32.00;29.50;;;28.93;nan;101210.59;5007932;28;20629;-68
2022/03/05 09:11:23;;;;;;;19.47;13.80;;;32.50;29.30;;;26.88;nan;101206.75;5009777;28;20670;-69
2022/03/05 09:13:51;;;;;;;17.07;13.00;;;31.50;29.30;;;27.08;nan;101204.94;5010241;28;20629;-69
2022/03/05 09:16:18;;;;;;;16.10;11.23;;;31.30;29.50;;;28.36;nan;101211.47;4992907;28;20671;-70
2022/03/05 09:18:46;;;;;;;20.80;12.77;;;31.40;29.60;;;28.58;nan;101206.63;5018069;28;21073;-70
2022/03/05 09:21:13;;;;;;;15.10;10.63;;;32.00;29.30;;;29.37;nan;101211.56;5011397;28;20642;-68
2022/03/05 09:23:40;;;;;;;13.77;10.10;;;32.80;29.10;;;30.19;nan;101209.31;5010967;28;20616;-68
2022/03/05 09:26:07;;;;;;;14.37;11.37;;;33.70;28.80;;;30.06;nan;101203.25;5011939;28;20617;-67
2022/03/05 09:28:36;;;;;;;14.73;11.47;;;34.00;28.50;;;30.90;nan;101205.97;4995361;28;20637;-70
2022/03/05 09:31:03;;;;;;;17.13;12.03;;;34.50;28.40;;;31.64;nan;101210.81;5009900;28;20673;-70
2022/03/05 09:33:30;;;;;;;14.40;10.67;;;35.00;28.10;;;31.09;nan;101210.25;4988876;28;20634;-72
2022/03/05 09:35:57;;;;;;;12.70;9.33;;;35.00;27.90;;;31.64;nan;101200.84;5009047;28;20668;-68
2022/03/05 09:38:24;;;;;;;12.77;8.57;;;35.10;27.50;;;31.19;nan;101194.31;4979805;28;20638;-68
2022/03/05 09:40:52;;;;;;;12.70;9.07;;;34.80;27.40;;;32.07;nan;101193.19;5000276;28;20658;-68
2022/03/05 09:43:21;;;;;;;15.40;11.03;;;35.20;27.30;;;32.40;nan;101197.09;4999689;28;20637;-67
2022/03/05 09:45:49;;;;;;;12.77;9.77;;;35.80;27.00;;;32.78;nan;101195.47;5004926;28;20622;-69
2022/03/05 09:48:18;;;;;;;14.20;11.90;;;36.40;27.00;;;32.99;nan;101187.75;4983981;28;21217;-71
2022/03/05 09:50:45;;;;;;;16.13;12.10;;;36.70;27.00;;;33.30;nan;101187.19;5010102;28;21066;-70
2022/03/05 09:53:12;;;;;;;14.40;11.00;;;36.90;26.90;;;32.96;nan;101193.63;4997756;28;20689;-68
2022/03/05 09:55:39;;;;;;;12.60;9.87;;;36.70;26.70;;;32.59;nan;101182.38;5008664;28;20668;-68
2022/03/05 09:58:26;;;;;;;12.87;10.40;;;36.30;26.70;;;33.01;nan;101183.72;4990821;28;20626;-70
2022/03/05 10:00:53;;;;;;;13.30;11.37;;;36.20;26.80;;;33.55;nan;101191.16;5013884;28;21292;-67
2022/03/05 10:03:22;;;;;;;13.67;12.17;;;37.00;26.60;;;33.50;nan;101191.06;5003590;28;20629;-70
2022/03/05 10:05:49;;;;;;;15.07;11.20;;;37.40;26.50;;;33.68;nan;101187.28;5007608;28;20621;-67
2022/03/05 10:08:17;;;;;;;13.00;11.00;;;37.70;26.40;;;32.42;nan;101179.59;4996651;28;21065;-68
2022/03/05 10:11:05;;;;;;;15.43;12.90;;;36.50;26.40;;;33.23;nan;101183.81;5005462;28;20657;-69
2022/03/05 10:13:33;;;;;;;12.93;11.10;;;36.80;26.50;;;33.97;nan;101177.91;5023930;28;20644;-67
2022/03/05 10:16:06;;;;;;;14.07;11.83;;;37.40;26.50;;;34.57;nan;101172.47;5011873;28;20665;-67
2022/03/05 10:18:36;;;;;;;16.87;11.00;;;37.80;26.30;;;35.15;nan;101184.41;4983321;28;20660;-67
2022/03/05 10:21:09;;;;;;;14.50;12.10;;;38.40;26.20;;;35.25;nan;101173.63;5003604;28;20661;-68
2022/03/05 10:23:47;;;;;;;14.13;11.70;;;38.70;25.90;;;34.29;nan;101170.78;5013374;28;20628;-70
2022/03/05 10:26:15;;;;;;;12.53;11.20;;;38.20;25.80;;;33.93;nan;101165.97;5008294;28;20648;-70
2022/03/05 10:28:42;;;;;;;12.17;10.33;;;37.50;25.90;;;34.38;nan;101174.69;5014127;28;20621;-71
2022/03/05 10:31:13;;;;;;;16.47;11.10;;;37.90;25.90;;;31.47;nan;101164.84;5011562;28;20734;-69